Time;durP1;ratioP1;P1;durP2;ratioP2;P2;SDS_P1;SDS_P2;PMS_P1;PMS_P2;Temp;Humidity;BMP_temperature;BMP_pressure;BME280_temperature;BME280_humidity;BME280_pressure;Samples;Min_cycle;Max_cycle;Signal;HPM_P1;HPM_P2
2022/08/23 00:03:03;;;;;;;17.80;7.57;;;17.30;99.90;;;;;;10278760;28;20042;-79
2022/08/23 00:08:04;;;;;;;14.35;6.60;;;17.20;99.90;;;;;;10266110;28;20486;-80
2022/08/23 00:13:05;;;;;;;16.58;6.60;;;17.30;99.90;;;;;;10282644;28;20018;-79
2022/08/23 00:18:05;;;;;;;16.60;6.40;;;17.40;99.90;;;;;;10280892;28;20066;-80
2022/08/23 00:23:06;;;;;;;9.63;5.20;;;17.40;99.90;;;;;;10283909;28;20035;-79
2022/08/23 00:28:08;;;;;;;12.15;5.78;;;17.40;99.90;;;;;;10283144;28;20101;-80
2022/08/23 00:33:09;;;;;;;12.90;5.88;;;17.40;99.90;;;;;;10275464;28;20375;-79
2022/08/23 00:38:09;;;;;;;20.75;7.72;;;17.40;99.90;;;;;;10278848;28;20601;-79
2022/08/23 00:48:33;;;;;;;11.20;5.40;;;17.40;99.90;;;;;;10278267;28;20624;-80
2022/08/23 00:53:39;;;;;;;21.58;8.00;;;17.40;99.90;;;;;;10279784;28;20035;-80
2022/08/23 00:58:40;;;;;;;13.02;6.85;;;17.40;99.90;;;;;;10277444;28;20049;-79
2022/08/23 01:03:43;;;;;;;20.00;7.53;;;17.40;99.90;;;;;;10281458;28;20057;-80
2022/08/23 01:08:50;;;;;;;19.55;7.93;;;17.40;99.90;;;;;;10282687;28;20034;-80
2022/08/23 01:14:04;;;;;;;12.68;5.75;;;17.50;99.90;;;;;;10279551;28;20745;-79
2022/08/23 01:19:15;;;;;;;16.00;6.70;;;17.50;99.90;;;;;;10282452;28;20627;-79
2022/08/23 01:24:16;;;;;;;6.93;4.03;;;17.50;99.90;;;;;;10278294;28;20431;-80
2022/08/23 01:29:17;;;;;;;10.90;5.28;;;17.50;99.90;;;;;;10277599;28;20031;-80
2022/08/23 01:34:17;;;;;;;15.23;5.97;;;17.50;99.90;;;;;;10277680;28;20094;-80
2022/08/23 01:39:18;;;;;;;19.83;6.90;;;17.50;99.90;;;;;;10277766;28;20038;-79
2022/08/23 01:44:18;;;;;;;20.85;6.97;;;17.40;99.90;;;;;;10271234;28;20103;-79
2022/08/23 01:49:20;;;;;;;22.63;7.18;;;17.40;99.90;;;;;;10279784;28;20041;-79
2022/08/23 01:54:20;;;;;;;18.05;7.03;;;17.30;99.90;;;;;;10278549;28;20030;-79
2022/08/23 01:59:21;;;;;;;17.15;6.60;;;17.20;99.90;;;;;;10286642;28;20043;-79
2022/08/23 02:04:22;;;;;;;12.18;5.28;;;17.10;99.90;;;;;;10288643;28;20042;-80
2022/08/23 02:09:22;;;;;;;11.63;5.28;;;17.00;99.90;;;;;;10281563;28;20039;-79
2022/08/23 02:14:23;;;;;;;15.75;6.10;;;17.10;99.90;;;;;;10284500;28;20035;-79
2022/08/23 02:19:24;;;;;;;18.73;6.03;;;17.00;99.90;;;;;;10287740;28;20046;-79
2022/08/23 02:24:24;;;;;;;19.10;6.82;;;17.00;99.90;;;;;;10283632;28;20042;-79
2022/08/23 02:29:28;;;;;;;20.55;6.78;;;16.70;99.90;;;;;;10285313;28;20042;-79
2022/08/23 02:34:30;;;;;;;16.83;6.35;;;16.60;99.90;;;;;;10284991;28;20026;-79
2022/08/23 02:39:31;;;;;;;20.42;6.15;;;16.60;99.90;;;;;;10283566;28;20041;-79
2022/08/23 02:44:33;;;;;;;26.52;8.18;;;16.60;99.90;;;;;;10282127;28;20051;-79
2022/08/23 02:49:34;;;;;;;22.55;8.07;;;16.70;99.90;;;;;;10286060;28;20081;-79
2022/08/23 02:54:35;;;;;;;28.58;9.25;;;16.90;99.90;;;;;;10286877;28;20589;-78
2022/08/23 02:59:36;;;;;;;20.23;7.20;;;17.00;99.90;;;;;;10279957;28;20045;-79
2022/08/23 03:04:36;;;;;;;21.95;7.60;;;17.10;99.90;;;;;;10279509;28;20035;-79
2022/08/23 03:09:37;;;;;;;22.48;7.90;;;17.20;99.90;;;;;;10275602;28;20651;-80
2022/08/23 03:14:38;;;;;;;21.35;7.70;;;17.20;99.90;;;;;;10285769;28;20042;-80
2022/08/23 03:19:38;;;;;;;21.30;7.53;;;17.30;99.90;;;;;;10285147;28;20100;-80
2022/08/23 03:24:39;;;;;;;25.35;9.38;;;17.40;99.90;;;;;;10265953;28;20018;-80
2022/08/23 03:29:39;;;;;;;39.78;11.68;;;17.40;99.90;;;;;;10280485;28;20077;-81
2022/08/23 03:34:40;;;;;;;53.53;14.52;;;17.40;99.90;;;;;;10281433;28;20039;-79
2022/08/23 03:39:40;;;;;;;57.08;16.17;;;17.50;99.90;;;;;;10279167;28;20383;-81
2022/08/23 03:44:41;;;;;;;61.47;16.73;;;17.50;99.90;;;;;;10283248;28;20067;-79
2022/08/23 03:49:42;;;;;;;51.17;15.27;;;17.50;99.90;;;;;;10283141;28;20042;-80
2022/08/23 03:54:43;;;;;;;92.07;21.23;;;17.60;99.90;;;;;;10284362;28;20480;-80
2022/08/23 03:59:44;;;;;;;69.15;17.85;;;17.50;99.90;;;;;;10283124;28;20035;-82
2022/08/23 04:04:44;;;;;;;78.32;19.88;;;17.60;99.90;;;;;;10277228;28;20023;-79
2022/08/23 04:09:45;;;;;;;63.22;17.42;;;17.60;99.90;;;;;;10276843;28;20031;-80
2022/08/23 04:14:46;;;;;;;71.80;19.80;;;17.70;99.90;;;;;;10271397;28;20062;-80
2022/08/23 04:19:48;;;;;;;54.17;16.92;;;17.70;99.90;;;;;;10278267;28;20615;-79
2022/08/23 04:24:48;;;;;;;78.50;20.50;;;17.70;99.90;;;;;;10272495;28;20035;-80
2022/08/23 04:29:49;;;;;;;64.35;18.80;;;17.90;99.90;;;;;;10277568;28;20534;-80
2022/08/23 04:34:50;;;;;;;65.45;18.95;;;17.90;99.90;;;;;;10274872;28;20081;-84
2022/08/23 04:45:10;;;;;;;67.47;20.00;;;18.10;99.90;;;;;;10280546;28;20062;-86
2022/08/23 04:50:11;;;;;;;76.60;22.00;;;18.20;99.90;;;;;;10281376;28;20022;-85
2022/08/23 04:55:12;;;;;;;62.22;20.58;;;18.20;99.90;;;;;;10277283;28;20050;-86
2022/08/23 05:00:15;;;;;;;86.75;24.02;;;18.20;99.90;;;;;;10280973;28;20038;-83
2022/08/23 05:05:16;;;;;;;75.40;22.67;;;18.30;99.90;;;;;;10282000;28;20050;-86
2022/08/23 05:10:16;;;;;;;64.13;20.42;;;18.40;99.90;;;;;;10265194;28;20463;-84
2022/08/23 05:15:17;;;;;;;86.97;24.70;;;18.40;99.90;;;;;;10282838;28;20031;-87
2022/08/23 05:20:18;;;;;;;63.60;20.02;;;18.50;99.90;;;;;;10282468;28;20030;-84
2022/08/23 05:25:19;;;;;;;80.43;25.35;;;18.50;99.90;;;;;;10265287;28;20031;-86
2022/08/23 05:30:20;;;;;;;94.20;25.13;;;18.60;99.90;;;;;;10286182;28;20038;-85
2022/08/23 05:35:20;;;;;;;90.55;24.92;;;18.70;99.90;;;;;;10290455;28;20509;-86
2022/08/23 05:40:21;;;;;;;72.80;23.23;;;18.70;99.90;;;;;;10290119;28;20075;-84
2022/08/23 05:45:21;;;;;;;72.40;23.48;;;18.80;99.90;;;;;;10290265;28;20410;-84
2022/08/23 05:50:22;;;;;;;79.35;25.83;;;18.90;99.90;;;;;;10289954;28;20031;-85
2022/08/23 05:55:23;;;;;;;75.82;25.05;;;19.00;99.90;;;;;;10290561;28;20030;-83
2022/08/23 06:00:24;;;;;;;64.68;23.05;;;19.20;99.90;;;;;;10289553;28;20490;-84
2022/08/23 06:05:25;;;;;;;60.30;22.30;;;19.30;99.90;;;;;;10289209;28;20030;-84
2022/08/23 06:10:25;;;;;;;57.42;24.17;;;19.30;99.90;;;;;;10288829;28;20026;-85
2022/08/23 06:15:26;;;;;;;62.13;22.95;;;19.40;99.90;;;;;;10288809;28;20035;-86
2022/08/23 06:20:26;;;;;;;54.28;22.42;;;19.50;99.90;;;;;;10288421;28;20031;-87
2022/08/23 06:25:27;;;;;;;78.97;27.65;;;19.50;99.90;;;;;;10288277;28;20596;-86
2022/08/23 06:30:28;;;;;;;70.55;23.80;;;19.50;99.90;;;;;;10288692;28;20445;-85
2022/08/23 06:35:29;;;;;;;85.97;30.42;;;19.50;99.90;;;;;;10271123;28;20027;-86
2022/08/23 06:40:29;;;;;;;62.60;23.63;;;19.50;99.90;;;;;;10264270;28;20042;-85
2022/08/23 06:45:33;;;;;;;62.75;24.95;;;19.60;99.90;;;;;;10287361;28;20063;-85
2022/08/23 06:50:34;;;;;;;51.58;23.30;;;19.60;99.90;;;;;;10288250;28;20019;-85
2022/08/23 06:55:34;;;;;;;61.97;26.10;;;19.50;99.90;;;;;;10287653;28;20031;-86
2022/08/23 07:00:36;;;;;;;54.25;24.52;;;19.60;99.90;;;;;;10280812;28;20058;-84
2022/08/23 07:05:36;;;;;;;55.50;23.42;;;19.70;99.90;;;;;;10287300;28;20027;-89
2022/08/23 07:10:37;;;;;;;53.55;24.52;;;19.70;99.90;;;;;;10280269;28;20030;-85
2022/08/23 07:15:37;;;;;;;52.47;25.10;;;19.80;99.90;;;;;;10286470;28;20027;-86
2022/08/23 07:20:38;;;;;;;55.78;27.83;;;20.00;99.90;;;;;;10286965;28;20086;-84
2022/08/23 07:25:39;;;;;;;65.70;28.83;;;20.10;99.90;;;;;;10285913;28;20541;-85
2022/08/23 07:30:39;;;;;;;49.30;27.02;;;20.20;99.90;;;;;;10286468;28;20019;-85
2022/08/23 07:35:48;;;;;;;52.53;27.58;;;20.30;99.90;;;;;;10285627;28;20039;-85
2022/08/23 07:40:49;;;;;;;72.15;31.08;;;20.30;99.90;;;;;;10267791;28;20105;-85
2022/08/23 07:45:49;;;;;;;69.15;29.52;;;20.30;99.90;;;;;;10268046;28;20063;-85
2022/08/23 07:50:52;;;;;;;68.82;30.35;;;20.60;99.90;;;;;;10285334;28;20055;-85
2022/08/23 07:55:53;;;;;;;79.05;35.00;;;20.80;99.90;;;;;;10285162;28;20054;-85
2022/08/23 08:00:54;;;;;;;76.30;32.67;;;20.90;99.90;;;;;;10284972;28;20027;-87
2022/08/23 08:05:56;;;;;;;81.65;36.38;;;20.90;99.90;;;;;;10284791;28;20463;-87
2022/08/23 08:10:56;;;;;;;81.03;35.78;;;21.10;99.90;;;;;;10284410;28;20038;-84
2022/08/23 08:15:57;;;;;;;69.65;32.78;;;21.10;99.90;;;;;;10283098;28;20498;-87
2022/08/23 08:20:58;;;;;;;60.17;31.77;;;21.20;99.90;;;;;;10284038;28;20042;-86
2022/08/23 08:26:04;;;;;;;83.57;34.55;;;21.20;99.90;;;;;;10284155;28;20038;-84
2022/08/23 08:31:05;;;;;;;81.90;34.78;;;21.10;99.90;;;;;;10280422;28;20039;-86
2022/08/23 08:36:07;;;;;;;80.35;35.28;;;21.20;99.90;;;;;;10283584;28;20094;-86
2022/08/23 08:41:16;;;;;;;73.82;33.03;;;21.10;99.90;;;;;;10260491;28;20051;-85
2022/08/23 08:46:21;;;;;;;75.07;32.78;;;21.00;99.90;;;;;;10283730;28;20137;-86
2022/08/23 08:51:40;;;;;;;75.97;31.53;;;21.00;99.90;;;;;;10284152;28;20022;-86
2022/08/23 08:56:43;;;;;;;67.55;31.65;;;21.00;99.90;;;;;;10283203;28;20035;-86
2022/08/23 09:01:43;;;;;;;82.45;33.10;;;21.00;99.90;;;;;;10283062;28;20034;-85
2022/08/23 09:07:02;;;;;;;73.88;32.75;;;20.90;99.90;;;;;;10288888;28;20027;-87
2022/08/23 09:12:25;;;;;;;75.90;32.25;;;20.90;99.90;;;;;;10289495;28;20101;-84
2022/08/23 09:17:43;;;;;;;69.32;30.98;;;20.90;99.90;;;;;;10291256;28;20031;-85
2022/08/23 09:22:48;;;;;;;73.60;33.92;;;20.90;99.90;;;;;;10284096;28;20039;-86
2022/08/23 09:27:50;;;;;;;63.20;32.13;;;21.00;99.90;;;;;;10290691;28;20050;-86
2022/08/23 09:32:51;;;;;;;71.45;32.95;;;21.00;99.90;;;;;;10290387;28;20026;-86
2022/08/23 09:37:53;;;;;;;89.93;36.90;;;21.00;99.90;;;;;;10290123;28;20554;-86
2022/08/23 09:43:02;;;;;;;71.90;32.75;;;21.00;99.90;;;;;;10289964;28;20023;-86
2022/08/23 09:48:11;;;;;;;78.40;35.95;;;21.10;99.90;;;;;;10285770;28;20054;-85
2022/08/23 09:53:14;;;;;;;77.32;34.85;;;21.30;99.90;;;;;;10289463;28;20035;-84
2022/08/23 09:58:37;;;;;;;83.22;38.40;;;21.60;99.90;;;;;;10289269;28;20027;-86
2022/08/23 10:03:38;;;;;;;78.78;39.40;;;21.80;99.90;;;;;;10289405;28;20019;-84
2022/08/23 10:08:54;;;;;;;69.25;32.92;;;21.90;99.90;;;;;;10289787;28;20023;-86
2022/08/23 10:13:55;;;;;;;64.93;31.58;;;22.20;99.90;;;;;;10271017;28;20029;-84
2022/08/23 10:19:07;;;;;;;57.00;29.10;;;22.30;99.90;;;;;;10265029;28;20043;-86
2022/08/23 10:24:18;;;;;;;57.35;30.00;;;22.60;99.90;;;;;;10288673;28;20031;-84
2022/08/23 10:29:37;;;;;;;52.97;29.90;;;22.70;99.90;;;;;;10270915;28;20563;-85
2022/08/23 10:35:25;;;;;;;65.93;33.90;;;22.70;99.90;;;;;;10270451;28;20466;-84
2022/08/23 10:40:51;;;;;;;70.72;35.55;;;22.50;99.90;;;;;;10284538;28;20450;-85
2022/08/23 10:45:56;;;;;;;70.03;36.50;;;22.40;99.90;;;;;;10288121;28;20137;-84
2022/08/23 10:51:31;;;;;;;64.18;34.65;;;22.50;99.90;;;;;;10288162;28;20475;-84
2022/08/23 10:56:34;;;;;;;63.58;36.58;;;22.80;99.90;;;;;;10233575;28;20031;-85
2022/08/23 11:02:03;;;;;;;64.03;35.50;;;23.20;99.90;;;;;;10286524;28;20070;-87
2022/08/23 11:07:36;;;;;;;62.33;34.65;;;23.30;99.90;;;;;;10254893;28;20486;-83
2022/08/23 11:12:54;;;;;;;66.00;36.30;;;23.60;99.90;;;;;;10261608;28;20109;-87
2022/08/23 11:18:10;;;;;;;64.85;35.95;;;23.40;99.90;;;;;;10272094;28;20034;-85
2022/08/23 11:23:13;;;;;;;51.50;32.10;;;23.10;99.90;;;;;;10276025;28;20022;-84
2022/08/23 11:28:22;;;;;;;54.45;34.25;;;22.90;99.90;;;;;;10286524;28;20039;-85
2022/08/23 11:33:51;;;;;;;55.40;33.25;;;22.80;99.90;;;;;;10266420;28;20029;-86
2022/08/23 11:38:54;;;;;;;53.55;32.20;;;22.80;99.90;;;;;;10286045;28;20455;-84
2022/08/23 11:43:55;;;;;;;50.63;32.60;;;22.70;99.90;;;;;;10278849;28;20031;-86
2022/08/23 11:49:14;;;;;;;53.80;33.50;;;22.70;99.90;;;;;;10265528;28;20047;-85
2022/08/23 11:54:52;;;;;;;53.42;34.20;;;22.80;99.90;;;;;;10266530;28;20511;-86
2022/08/23 12:00:20;;;;;;;56.22;34.58;;;22.90;99.90;;;;;;10264241;28;20070;-87
2022/08/23 12:05:41;;;;;;;49.95;32.75;;;22.90;99.90;;;;;;10263882;28;20536;-85
2022/08/23 12:10:42;;;;;;;59.53;35.40;;;23.00;99.90;;;;;;10282556;28;20142;-87
2022/08/23 12:16:12;;;;;;;52.05;33.58;;;23.00;99.90;;;;;;10274538;28;20337;-84
2022/08/23 12:52:09;;;;;;;45.80;31.55;;;24.30;99.90;;;;;;10286514;28;20079;-87
2022/08/23 13:09:55;;;;;;;48.90;34.13;;;24.60;99.90;;;;;;10292000;28;20066;-84
2022/08/23 13:15:00;;;;;;;46.65;32.47;;;24.70;99.90;;;;;;10274853;28;20583;-84
2022/08/23 13:20:22;;;;;;;40.03;29.55;;;24.90;99.90;;;;;;10248317;28;20036;-86
2022/08/23 13:25:29;;;;;;;44.95;30.80;;;25.20;99.90;;;;;;10255677;28;20072;-85
2022/08/23 13:30:33;;;;;;;39.92;29.30;;;25.30;99.90;;;;;;10270066;28;20094;-87
2022/08/23 13:35:43;;;;;;;41.47;29.45;;;24.90;99.90;;;;;;10253737;28;20486;-84
2022/08/23 13:41:07;;;;;;;44.58;29.75;;;24.60;99.90;;;;;;10229944;29;20053;-83
2022/08/23 13:46:23;;;;;;;47.95;32.92;;;24.50;99.90;;;;;;10225285;29;20030;-83
2022/08/23 13:51:37;;;;;;;52.35;33.53;;;24.30;99.90;;;;;;10222751;29;20485;-83
2022/08/23 13:56:53;;;;;;;49.33;33.58;;;24.00;99.90;;;;;;10229192;29;20059;-84
2022/08/23 14:01:55;;;;;;;50.60;35.65;;;23.90;99.90;;;;;;10209107;29;20055;-84
2022/08/23 14:19:07;;;;;;;45.97;30.75;;;23.80;99.90;;;;;;10173617;29;20044;-83
2022/08/23 14:35:20;;;;;;;42.78;28.95;;;24.20;99.90;;;;;;11882175;23;20125;-83
2022/08/23 14:47:42;;;;;;;41.20;28.88;;;24.10;99.90;;;;;;10245650;29;21264;-83
2022/08/23 15:22:10;;;;;;;36.28;25.35;;;24.10;99.90;;;;;;10279662;28;20773;-85
2022/08/23 15:33:10;;;;;;;35.13;24.33;;;24.00;99.90;;;;;;11645335;23;20078;-85
2022/08/23 15:54:42;;;;;;;39.85;25.92;;;23.80;99.90;;;;;;10666722;23;20070;-85
2022/08/23 16:00:27;;;;;;;35.58;23.98;;;23.60;99.90;;;;;;10214787;28;20050;-84
2022/08/23 16:11:22;;;;;;;35.35;25.05;;;23.40;99.90;;;;;;12422705;23;20037;-86
2022/08/23 16:33:27;;;;;;;35.45;22.75;;;23.00;99.90;;;;;;11735512;23;20055;-86
2022/08/23 16:38:59;;;;;;;37.95;25.25;;;22.80;99.90;;;;;;10240906;29;20388;-84
2022/08/23 16:56:34;;;;;;;33.78;23.73;;;22.50;99.90;;;;;;10238365;29;20531;-86
2022/08/23 17:02:22;;;;;;;37.95;25.17;;;22.50;99.90;;;;;;10238990;29;20039;-84
2022/08/23 17:18:59;;;;;;;36.50;24.90;;;22.10;99.90;;;;;;10201647;29;20056;-78
2022/08/23 17:24:01;;;;;;;38.25;24.40;;;22.00;99.90;;;;;;10199349;29;20032;-82
2022/08/23 17:29:03;;;;;;;32.72;23.75;;;21.90;99.90;;;;;;10221446;29;20074;-80
2022/08/23 17:34:05;;;;;;;35.75;22.80;;;21.80;99.90;;;;;;10200338;29;20539;-82
2022/08/23 17:39:09;;;;;;;33.85;23.88;;;21.80;99.90;;;;;;10217059;29;20086;-82
2022/08/23 17:44:19;;;;;;;32.17;22.48;;;21.70;99.90;;;;;;10217660;29;20112;-84
2022/08/23 17:49:20;;;;;;;35.00;23.05;;;21.70;99.90;;;;;;10215486;29;20024;-82
2022/08/23 17:54:21;;;;;;;34.40;21.92;;;21.60;99.90;;;;;;10194657;29;20065;-80
2022/08/23 17:59:28;;;;;;;32.47;22.73;;;21.60;99.90;;;;;;10208493;29;20523;-80
2022/08/23 18:04:30;;;;;;;36.88;24.45;;;21.50;99.90;;;;;;10196426;29;20440;-83
2022/08/23 18:09:31;;;;;;;40.78;26.20;;;21.40;99.90;;;;;;10231540;29;20108;-84
2022/08/23 18:14:32;;;;;;;35.47;24.10;;;21.20;99.90;;;;;;10211512;29;20362;-81
2022/08/23 18:19:33;;;;;;;34.72;24.02;;;21.10;99.90;;;;;;10222763;29;20144;-80
2022/08/23 18:24:34;;;;;;;34.42;23.60;;;20.90;99.90;;;;;;10203514;29;20100;-81
2022/08/23 18:35:13;;;;;;;35.30;24.08;;;20.60;99.90;;;;;;10229491;29;20052;-82
2022/08/23 18:40:14;;;;;;;33.15;22.20;;;20.50;99.90;;;;;;10217968;29;20039;-82
2022/08/23 18:45:14;;;;;;;37.47;24.00;;;20.40;99.90;;;;;;10215756;29;20031;-87
2022/08/23 18:50:16;;;;;;;40.33;22.38;;;20.30;99.90;;;;;;10206952;29;20545;-81
2022/08/23 18:55:18;;;;;;;32.50;22.55;;;20.30;99.90;;;;;;10212698;29;20384;-82
2022/08/23 19:00:19;;;;;;;32.10;20.52;;;20.20;99.90;;;;;;10194891;29;20417;-81
2022/08/23 19:05:21;;;;;;;32.00;20.30;;;20.10;99.90;;;;;;10192521;29;20043;-81
2022/08/23 19:10:21;;;;;;;33.33;21.50;;;20.00;99.90;;;;;;10186633;29;20122;-80
2022/08/23 19:15:23;;;;;;;32.10;21.15;;;20.00;99.90;;;;;;10194921;29;20484;-81
2022/08/23 19:20:25;;;;;;;33.05;22.52;;;19.90;99.90;;;;;;10194288;29;20040;-80
2022/08/23 19:25:26;;;;;;;35.92;22.33;;;19.90;99.90;;;;;;10196050;29;20039;-83
2022/08/23 19:30:27;;;;;;;33.70;22.42;;;19.80;99.90;;;;;;10203113;29;20032;-81
2022/08/23 19:35:29;;;;;;;36.10;22.98;;;19.80;99.90;;;;;;10197772;29;20341;-82
2022/08/23 19:40:29;;;;;;;37.33;22.60;;;19.70;99.90;;;;;;10206905;29;20039;-80
2022/08/23 19:45:30;;;;;;;39.88;24.10;;;19.50;99.90;;;;;;10214443;29;20370;-80
2022/08/23 19:50:31;;;;;;;37.45;24.13;;;19.60;99.90;;;;;;10189603;29;20058;-79
2022/08/23 19:55:33;;;;;;;40.95;24.08;;;19.60;99.90;;;;;;10215919;29;20012;-80
2022/08/23 20:00:34;;;;;;;38.20;24.58;;;19.50;99.90;;;;;;10203726;29;20048;-80
2022/08/23 20:05:34;;;;;;;38.30;24.45;;;19.60;99.90;;;;;;10210037;29;20031;-81
2022/08/23 20:10:35;;;;;;;40.75;24.40;;;19.60;99.90;;;;;;10208922;29;20506;-81
2022/08/23 20:15:38;;;;;;;37.20;22.88;;;19.60;99.90;;;;;;10212832;29;20028;-82
2022/08/23 20:20:40;;;;;;;37.70;23.92;;;19.60;99.90;;;;;;10205374;29;20488;-79
2022/08/23 20:25:41;;;;;;;36.58;23.38;;;19.70;99.90;;;;;;10210395;29;20028;-79
2022/08/23 20:30:42;;;;;;;37.75;23.10;;;19.70;99.90;;;;;;10205316;29;20090;-80
2022/08/23 20:35:42;;;;;;;39.13;23.88;;;19.70;99.90;;;;;;10212624;29;20123;-79
2022/08/23 20:40:43;;;;;;;40.20;24.95;;;19.70;99.90;;;;;;10204716;29;20051;-79
2022/08/23 20:45:43;;;;;;;39.92;23.92;;;19.60;99.90;;;;;;10204339;29;20115;-80
2022/08/23 20:50:44;;;;;;;40.33;25.08;;;19.60;99.90;;;;;;10209259;29;20039;-82
2022/08/23 20:55:44;;;;;;;45.13;25.17;;;19.50;99.90;;;;;;10207409;29;20575;-80
2022/08/23 21:00:45;;;;;;;46.25;25.27;;;19.50;99.90;;;;;;10204987;29;20082;-79
2022/08/23 21:05:46;;;;;;;41.35;25.27;;;19.50;99.90;;;;;;10213613;29;20429;-80
2022/08/23 21:10:46;;;;;;;43.28;26.00;;;19.50;99.90;;;;;;10217468;29;20581;-80
2022/08/23 21:15:47;;;;;;;41.80;25.95;;;19.60;99.90;;;;;;10212905;29;20366;-80
2022/08/23 21:20:47;;;;;;;45.42;26.65;;;19.70;99.90;;;;;;10201701;29;20048;-83
2022/08/23 21:25:56;;;;;;;47.80;27.60;;;19.70;99.90;;;;;;10203878;29;20038;-79
2022/08/23 21:31:07;;;;;;;53.58;29.52;;;19.70;99.90;;;;;;10204356;29;20084;-79
2022/08/23 21:36:09;;;;;;;48.58;28.25;;;19.70;99.90;;;;;;10206468;29;20060;-79
2022/08/23 21:41:31;;;;;;;56.47;30.80;;;19.70;99.90;;;;;;10215666;29;20047;-79
2022/08/23 21:46:32;;;;;;;54.00;28.77;;;19.70;99.90;;;;;;10210306;29;20071;-79
2022/08/23 21:51:33;;;;;;;49.95;28.63;;;19.70;99.90;;;;;;10211683;29;20028;-80
2022/08/23 21:56:35;;;;;;;51.80;29.25;;;19.70;99.90;;;;;;10218903;29;20064;-80
2022/08/23 22:01:36;;;;;;;56.20;30.77;;;19.70;99.90;;;;;;10202536;29;20124;-80
2022/08/23 22:06:37;;;;;;;57.70;29.90;;;19.70;99.90;;;;;;10202616;29;20036;-79
2022/08/23 22:11:40;;;;;;;55.92;30.92;;;19.60;99.90;;;;;;10209172;29;20114;-79
2022/08/23 22:16:42;;;;;;;58.33;30.20;;;19.60;99.90;;;;;;10213099;29;20051;-79
2022/08/23 22:21:45;;;;;;;57.33;29.35;;;19.60;99.90;;;;;;10214304;29;20039;-79
2022/08/23 22:26:45;;;;;;;61.03;30.80;;;19.60;99.90;;;;;;10209870;29;20047;-79
2022/08/23 22:31:47;;;;;;;62.85;31.80;;;19.60;99.90;;;;;;10205230;29;20036;-79
2022/08/23 22:36:48;;;;;;;63.35;31.42;;;19.60;99.90;;;;;;10211456;29;20059;-79
2022/08/23 22:41:48;;;;;;;66.68;31.88;;;19.60;99.90;;;;;;10217947;29;20156;-79
2022/08/23 22:46:49;;;;;;;61.63;31.30;;;19.60;99.90;;;;;;10226165;29;20035;-79
2022/08/23 22:51:50;;;;;;;63.60;29.90;;;19.60;99.90;;;;;;10220087;29;20098;-79
2022/08/23 22:56:51;;;;;;;69.15;31.73;;;19.60;99.90;;;;;;10201325;29;20061;-79
2022/08/23 23:01:54;;;;;;;63.20;31.05;;;19.60;99.90;;;;;;10213391;29;20044;-81
2022/08/23 23:06:55;;;;;;;67.97;30.92;;;19.60;99.90;;;;;;10224605;29;20032;-82
2022/08/23 23:11:56;;;;;;;58.65;28.98;;;19.60;99.90;;;;;;10220547;29;20035;-79
2022/08/23 23:16:57;;;;;;;66.68;31.58;;;19.60;99.90;;;;;;10203414;29;20047;-78
2022/08/23 23:21:57;;;;;;;72.20;31.92;;;19.60;99.90;;;;;;10216204;28;20130;-79
2022/08/23 23:26:59;;;;;;;76.20;32.70;;;19.60;99.90;;;;;;10207077;29;20039;-84
2022/08/23 23:31:59;;;;;;;81.95;33.08;;;19.60;99.90;;;;;;10214166;29;20473;-82
2022/08/23 23:37:00;;;;;;;79.72;33.00;;;19.50;99.90;;;;;;10190682;29;20024;-80
2022/08/23 23:42:00;;;;;;;75.53;31.65;;;19.50;99.90;;;;;;10212157;29;20122;-82
2022/08/23 23:47:02;;;;;;;87.50;32.65;;;19.50;99.90;;;;;;10223074;29;20391;-80
2022/08/23 23:52:04;;;;;;;74.25;29.15;;;19.60;99.90;;;;;;10203848;29;20468;-79
2022/08/23 23:57:06;;;;;;;60.42;27.60;;;19.50;99.90;;;;;;10202480;29;20119;-81
